New Braunfels, TX (78132)

3:10 PM CST on February 14, 2016 (GMT -0600)
Wood Rd | | Change Station
CLOSE
Current Station
Personal Weather Station
Location: New Braunfels, TX
Elevation: 646 ft
Nearby Weather Stations

Elev 646 ft 29.71 °N, 98.14 °W | Updated 3 seconds ago

Partly Cloudy
Partly Cloudy
74.5 °F
Feels Like 77 °F
N
3.2
Wind Variable Wind from SSE

Today
High -- | Low -- °F
--% Chance of Precip.
Yesterday
High -- | Low -- °F
Precip. -- in
Pressure 29.85 in
Visibility 10.0 miles
Clouds Few 4100 ft
Heat Index 77 °F
Dew Point 57 °F
Humidity 54%
Rainfall 0.00 in
Snow Depth Not available.
7:13 AM 6:20 PM
Waxing Crescent, 45% visible
METAR KBAZ 142051Z 22014KT 10SM FEW041 24/12 A2987 RMK AO2 SLP108 T02390122 56033
Pressure 29.85 in
Visibility 10.0 miles
Clouds Few 4100 ft
Heat Index 77 °F
Dew Point 57 °F
Humidity 54%
Rainfall 0.00 in
Snow Depth Not available.
7:13 AM 6:20 PM
Waxing Crescent, 45% visible
METAR KBAZ 142051Z 22014KT 10SM FEW041 24/12 A2987 RMK AO2 SLP108 T02390122 56033

10-Day Weather Forecast

Almanac

Astronomy

Feb. 14, 2016 Rise Set
Actual Time
Civil Twilight
Nautical Twilight
Astronomical Twilight
Moon
Length of Visible Light
Length of Day
Tomorrow will be .
, % of the Moon is Illuminated

Today's Extremes

State Highs State Lows

Community

WunderPhotos

Upload Photos

1,892,885 photos uploaded!

WunderBlog® & News

Nearby

Air Quality

  Air Quality AQ Index Pollutant
Not available.

Snow Depth

Station Depth Elevation

Earthquake Activity

City Distance Mag. Time & Date
Minimum magnitude displayed is 2.5.

Coastal Water Temperatures

Place Temperature

Stations

Nearby Weather Stations

Station Location Temp. Windchill Dew Point Humidity Wind Precip. Elev Updated Type
                   

Watches & Warnings

There are currently no watches in effect.